Time;durP1;ratioP1;P1;durP2;ratioP2;P2;SDS_P1;SDS_P2;PMS_P1;PMS_P2;Temp;Humidity;BMP_temperature;BMP_pressure;BME280_temperature;BME280_humidity;BME280_pressure;Samples;Min_cycle;Max_cycle;Signal;HPM_P1;HPM_P2
2023/01/21 00:00:35;;;;;;;24.10;11.85;;;;;;;6.42;57.80;98970.84;5134887;27;20489;-48
2023/01/21 00:03:01;;;;;;;15.32;11.00;;;;;;;6.40;56.84;98965.81;5133380;27;20043;-48
2023/01/21 00:05:27;;;;;;;18.42;13.15;;;;;;;6.05;55.84;98966.97;5133929;27;20033;-49
2023/01/21 00:07:52;;;;;;;15.63;12.13;;;;;;;5.81;56.30;98962.56;5133363;27;20035;-48
2023/01/21 00:10:18;;;;;;;21.02;14.02;;;;;;;5.49;56.69;98971.16;5133301;27;20118;-48
2023/01/21 00:12:43;;;;;;;16.58;12.10;;;;;;;5.45;58.06;98973.25;5134554;27;20020;-48
2023/01/21 00:15:09;;;;;;;16.67;11.70;;;;;;;5.71;58.63;98972.31;5133247;27;20397;-48
2023/01/21 00:17:35;;;;;;;20.98;11.35;;;;;;;5.95;58.97;98972.34;5134536;27;20035;-48
2023/01/21 00:20:05;;;;;;;16.13;11.80;;;;;;;6.20;58.75;98970.56;5134472;27;20143;-48
2023/01/21 00:22:32;;;;;;;22.17;12.00;;;;;;;6.31;58.08;98972.00;5134465;27;20057;-48
2023/01/21 00:24:58;;;;;;;16.17;11.60;;;;;;;6.17;56.56;98976.09;5134209;27;20521;-49
2023/01/21 00:27:23;;;;;;;18.48;13.13;;;;;;;5.92;56.81;98975.28;5133025;27;20030;-48
2023/01/21 00:29:49;;;;;;;15.63;11.82;;;;;;;5.53;56.87;98972.47;5134285;27;20129;-48
2023/01/21 00:32:14;;;;;;;13.70;10.80;;;;;;;5.38;57.21;98969.69;5132889;27;20020;-48
2023/01/21 00:34:41;;;;;;;18.05;11.10;;;;;;;5.32;57.22;98978.94;5134594;27;20038;-48
2023/01/21 00:37:06;;;;;;;15.40;11.80;;;;;;;5.29;56.86;98978.44;5133088;27;20019;-48
2023/01/21 00:39:32;;;;;;;18.58;13.20;;;;;;;5.24;57.77;98978.94;5134068;27;20037;-48
2023/01/21 00:41:58;;;;;;;15.52;12.13;;;;;;;5.18;57.18;98972.56;5134016;27;20068;-48
2023/01/21 00:44:23;;;;;;;19.38;13.07;;;;;;;5.10;57.60;98966.53;5134074;27;20446;-48
2023/01/21 00:46:49;;;;;;;21.23;13.15;;;;;;;5.10;58.63;98969.13;5132587;27;20020;-48
2023/01/21 00:49:15;;;;;;;19.83;12.05;;;;;;;5.17;58.88;98962.31;5134253;27;20030;-48
2023/01/21 00:51:40;;;;;;;18.35;12.45;;;;;;;5.15;58.19;98961.66;5132615;27;20015;-48
2023/01/21 00:54:06;;;;;;;21.02;14.98;;;;;;;5.14;58.80;98960.03;5132453;27;20137;-48
2023/01/21 00:56:31;;;;;;;19.23;12.88;;;;;;;5.24;59.64;98965.09;5133814;27;20110;-48
2023/01/21 00:58:57;;;;;;;16.42;13.38;;;;;;;5.15;58.63;98959.03;5133753;27;20023;-48
2023/01/21 01:01:25;;;;;;;20.75;13.50;;;;;;;4.93;59.07;98956.06;5133726;27;20057;-48
2023/01/21 01:03:51;;;;;;;22.63;13.63;;;;;;;4.91;60.15;98959.78;5133669;27;20051;-48
2023/01/21 01:06:21;;;;;;;19.30;13.32;;;;;;;4.89;60.68;98957.38;5133578;27;20512;-48
2023/01/21 01:08:51;;;;;;;18.90;13.30;;;;;;;4.96;60.19;98953.16;5133513;27;20516;-48
2023/01/21 01:11:20;;;;;;;19.88;13.02;;;;;;;4.88;60.18;98950.50;5133487;27;20031;-48
2023/01/21 01:13:46;;;;;;;19.52;13.27;;;;;;;4.76;60.51;98949.19;5133429;27;20069;-48
2023/01/21 01:16:13;;;;;;;20.55;13.45;;;;;;;4.85;60.63;98945.66;5133189;27;20435;-48
2023/01/21 01:18:39;;;;;;;18.83;14.23;;;;;;;4.92;61.32;98940.63;5133334;27;20044;-48
2023/01/21 01:21:05;;;;;;;19.73;13.45;;;;;;;4.78;60.32;98937.63;5132087;27;20031;-48
2023/01/21 01:23:32;;;;;;;17.77;13.38;;;;;;;4.89;61.61;98940.91;5133014;27;20122;-48
2023/01/21 01:26:00;;;;;;;23.73;13.43;;;;;;;5.11;60.95;98935.16;5131858;27;20030;-48
2023/01/21 01:28:26;;;;;;;20.98;12.70;;;;;;;5.38;61.42;98936.66;5133183;27;20167;-48
2023/01/21 01:30:52;;;;;;;17.83;12.77;;;;;;;5.65;61.36;98937.31;5133393;27;20026;-48
2023/01/21 01:33:18;;;;;;;20.35;13.18;;;;;;;5.90;60.51;98937.34;5131838;27;20405;-48
2023/01/21 01:35:47;;;;;;;18.55;13.50;;;;;;;6.08;60.35;98926.78;5132964;27;20024;-48
2023/01/21 01:38:14;;;;;;;15.35;12.20;;;;;;;6.24;59.73;98931.13;5131573;27;20030;-48
2023/01/21 01:40:40;;;;;;;14.63;12.20;;;;;;;6.14;58.13;98920.91;5114587;27;20050;-48
2023/01/21 01:43:15;;;;;;;18.05;13.15;;;;;;;5.90;57.73;98919.91;5132768;27;20061;-48
2023/01/21 01:45:41;;;;;;;17.95;13.13;;;;;;;5.57;57.74;98925.16;5339847;22;20062;-48
2023/01/21 01:48:11;;;;;;;17.13;13.00;;;;;;;5.39;58.09;98927.91;5223977;23;20057;-46
2023/01/21 01:50:40;;;;;;;23.10;15.35;;;;;;;5.44;59.08;98932.59;5031799;28;20048;-46
2023/01/21 01:53:07;;;;;;;19.77;13.48;;;;;;;5.64;59.86;98927.91;5031712;28;20025;-46
2023/01/21 01:55:35;;;;;;;18.73;13.90;;;;;;;5.91;59.02;98921.53;5032239;28;20088;-45
2023/01/21 01:58:03;;;;;;;18.17;13.55;;;;;;;6.13;58.49;98924.47;5031757;28;20108;-46
2023/01/21 02:00:29;;;;;;;18.17;13.13;;;;;;;6.26;57.67;98914.38;5031755;28;20100;-46
2023/01/21 02:05:41;;;;;;;17.88;12.55;;;;;;;6.39;57.05;98913.81;5032062;28;20407;-46
2023/01/21 02:08:08;;;;;;;18.98;12.95;;;;;;;6.15;56.12;98915.50;5013896;28;20017;-46
2023/01/21 02:10:34;;;;;;;19.27;13.50;;;;;;;5.96;57.35;98915.88;5013957;28;20029;-46
2023/01/21 02:13:01;;;;;;;19.40;13.82;;;;;;;5.84;57.42;98910.16;5031687;28;20021;-46
2023/01/21 02:15:44;;;;;;;17.48;13.88;;;;;;;5.89;57.77;98917.47;5013838;28;20053;-46
2023/01/21 02:18:24;;;;;;;16.58;12.63;;;;;;;6.01;57.53;98910.97;5031682;28;20412;-46
2023/01/21 02:21:02;;;;;;;25.00;14.35;;;;;;;6.18;57.50;98914.38;5013865;28;20044;-46
2023/01/21 02:23:36;;;;;;;21.20;15.88;;;;;;;6.22;56.86;98912.22;5031691;28;20418;-46
2023/01/21 02:26:26;;;;;;;17.25;12.80;;;;;;;5.83;56.00;98910.31;5031568;28;20155;-46
2023/01/21 02:29:16;;;;;;;18.77;14.18;;;;;;;5.38;56.41;98910.63;5035213;28;20052;-46
2023/01/21 02:32:10;;;;;;;19.23;13.20;;;;;;;5.09;57.18;98910.25;5035480;28;20029;-46
2023/01/21 02:34:40;;;;;;;20.58;14.50;;;;;;;5.02;58.26;98907.50;5035378;28;20273;-46
2023/01/21 02:37:15;;;;;;;16.77;12.32;;;;;;;5.02;59.10;98911.88;5035537;28;20029;-46
2023/01/21 02:40:05;;;;;;;18.60;13.05;;;;;;;5.18;58.49;98909.31;5002003;28;20072;-46
2023/01/21 02:42:43;;;;;;;17.23;13.07;;;;;;;5.27;58.09;98908.38;5035283;28;20033;-46
2023/01/21 02:45:17;;;;;;;17.23;13.45;;;;;;;5.43;58.05;98912.75;5035180;28;20056;-46
2023/01/21 02:47:54;;;;;;;16.92;11.85;;;;;;;5.34;57.06;98909.34;5034959;28;20060;-46
2023/01/21 02:50:25;;;;;;;19.42;13.60;;;;;;;5.23;58.12;98904.44;5035180;28;20199;-46
2023/01/21 02:52:58;;;;;;;19.13;14.30;;;;;;;5.27;58.51;98904.94;5035111;28;20325;-46
2023/01/21 02:55:30;;;;;;;21.02;16.80;;;;;;;5.08;58.20;98898.25;5035206;28;20053;-45
2023/01/21 02:58:02;;;;;;;21.42;15.35;;;;;;;4.89;57.53;98894.94;5035004;28;20056;-45
2023/01/21 03:00:50;;;;;;;20.05;12.05;;;;;;;4.65;59.68;98892.25;5035005;28;20048;-46
2023/01/21 03:03:31;;;;;;;17.23;12.02;;;;;;;5.07;60.68;98892.22;5034830;28;20029;-46
2023/01/21 03:06:29;;;;;;;18.92;12.48;;;;;;;5.62;59.87;98887.41;5034905;28;20083;-46
2023/01/21 03:09:15;;;;;;;20.55;12.07;;;;;;;5.93;59.30;98875.28;5034771;28;20517;-46
2023/01/21 03:11:48;;;;;;;15.18;11.65;;;;;;;6.06;58.30;98877.44;5016994;28;20048;-46
2023/01/21 03:17:19;;;;;;;13.63;12.07;;;;;;;5.87;57.52;98875.97;5034932;28;20505;-46
2023/01/21 03:20:04;;;;;;;15.80;11.07;;;;;;;5.82;56.64;98869.66;5017457;28;20056;-46
2023/01/21 03:22:34;;;;;;;19.92;11.98;;;;;;;5.86;57.13;98868.34;5034544;28;20029;-46
2023/01/21 03:25:01;;;;;;;13.70;11.52;;;;;;;5.90;56.62;98869.63;5034501;28;20061;-46
2023/01/21 03:27:29;;;;;;;16.92;11.45;;;;;;;5.95;56.87;98855.13;5034593;28;20394;-46
2023/01/21 03:30:04;;;;;;;18.35;13.40;;;;;;;6.13;56.62;98862.75;5034395;28;20104;-46
2023/01/21 03:32:33;;;;;;;20.70;14.10;;;;;;;6.03;57.35;98854.31;5034466;28;20679;-46
2023/01/21 03:35:02;;;;;;;17.88;13.00;;;;;;;5.97;57.86;98852.38;5034253;28;20075;-46
2023/01/21 03:37:53;;;;;;;17.55;11.88;;;;;;;6.07;58.25;98841.75;5016422;28;20044;-46
2023/01/21 03:40:25;;;;;;;17.45;11.93;;;;;;;6.19;57.90;98841.22;5033208;28;20021;-46
2023/01/21 03:42:55;;;;;;;17.08;12.70;;;;;;;6.34;57.86;98840.56;5034256;28;20033;-46
2023/01/21 03:45:43;;;;;;;19.17;12.90;;;;;;;6.38;57.76;98839.22;5034076;28;20040;-46
2023/01/21 03:48:23;;;;;;;19.45;12.55;;;;;;;6.50;57.86;98834.44;5033766;28;20095;-46
2023/01/21 03:50:58;;;;;;;18.85;11.93;;;;;;;6.62;57.04;98830.47;5016143;28;20041;-46
2023/01/21 03:53:24;;;;;;;16.10;12.02;;;;;;;6.66;56.26;98830.94;5016249;28;20091;-46
2023/01/21 03:55:50;;;;;;;17.65;12.93;;;;;;;6.65;56.70;98837.13;5016086;28;20029;-46
2023/01/21 03:58:16;;;;;;;18.27;14.13;;;;;;;6.56;56.07;98837.19;5016089;28;20048;-46
2023/01/21 04:00:42;;;;;;;19.85;15.07;;;;;;;6.14;56.14;98837.53;5033801;28;20080;-46
2023/01/21 04:03:08;;;;;;;18.80;15.23;;;;;;;5.79;57.55;98842.94;5015998;28;20148;-46
2023/01/21 04:05:34;;;;;;;24.23;17.10;;;;;;;5.36;58.94;98838.91;5033739;28;20494;-46
2023/01/21 04:08:01;;;;;;;22.15;15.38;;;;;;;5.16;59.33;98841.03;5033679;28;20083;-46
2023/01/21 04:10:26;;;;;;;24.15;16.23;;;;;;;4.90;60.66;98823.75;5033687;28;20025;-46
2023/01/21 04:12:52;;;;;;;21.05;15.90;;;;;;;5.01;61.72;98825.25;5015816;28;20025;-45
2023/01/21 04:15:18;;;;;;;21.50;15.80;;;;;;;5.15;61.86;98814.19;5015639;28;20029;-46
2023/01/21 04:17:43;;;;;;;23.30;15.38;;;;;;;5.36;61.82;98808.50;5015738;28;20486;-46
2023/01/21 04:20:10;;;;;;;19.48;16.15;;;;;;;5.33;60.48;98816.63;5015575;28;20399;-46
2023/01/21 04:22:35;;;;;;;22.38;15.85;;;;;;;5.05;61.83;98815.31;5033381;28;20056;-46
2023/01/21 04:25:01;;;;;;;26.42;17.02;;;;;;;5.19;62.90;98818.09;5033313;28;20057;-46
2023/01/21 04:27:27;;;;;;;23.08;17.13;;;;;;;5.32;61.89;98817.59;5015518;28;20029;-46
2023/01/21 04:29:52;;;;;;;22.73;16.77;;;;;;;5.35;62.03;98819.06;5015489;28;20083;-46
2023/01/21 04:32:18;;;;;;;24.35;16.92;;;;;;;5.54;61.85;98816.13;5033158;28;20117;-45
2023/01/21 04:34:43;;;;;;;19.08;15.80;;;;;;;5.54;61.62;98817.91;5015331;28;20032;-46
2023/01/21 04:37:09;;;;;;;20.23;16.23;;;;;;;5.62;61.95;98819.72;5033105;28;20087;-47
2023/01/21 04:39:35;;;;;;;18.70;15.10;;;;;;;5.56;61.89;98813.38;5033101;28;20022;-48
2023/01/21 04:42:00;;;;;;;22.73;16.35;;;;;;;5.71;62.16;98810.88;5033063;28;20026;-48
2023/01/21 04:44:26;;;;;;;21.65;16.15;;;;;;;5.92;61.50;98813.78;5032993;28;20406;-48
2023/01/21 04:46:51;;;;;;;22.95;14.93;;;;;;;6.09;61.82;98819.78;5032901;28;20021;-48
2023/01/21 04:49:17;;;;;;;23.10;15.32;;;;;;;6.19;61.01;98812.56;5011644;28;20070;-48
2023/01/21 04:51:43;;;;;;;20.75;15.43;;;;;;;6.29;60.61;98814.16;5012720;28;20025;-48
2023/01/21 04:54:10;;;;;;;20.13;16.13;;;;;;;6.42;60.32;98809.22;5012999;28;20459;-48
2023/01/21 04:56:35;;;;;;;26.70;16.25;;;;;;;6.52;60.23;98812.44;5011775;28;20113;-48
2023/01/21 04:59:01;;;;;;;27.60;16.10;;;;;;;6.43;60.62;98807.44;5012956;28;20105;-48
2023/01/21 05:01:27;;;;;;;20.92;16.42;;;;;;;6.45;60.40;98798.44;5011623;28;20042;-48
2023/01/21 05:03:52;;;;;;;22.90;15.88;;;;;;;6.46;59.81;98800.09;5011656;28;20018;-48
2023/01/21 05:06:18;;;;;;;21.85;15.93;;;;;;;6.43;59.93;98797.00;5012842;28;20034;-48
2023/01/21 05:08:44;;;;;;;21.33;16.20;;;;;;;6.38;60.52;98792.31;5012795;28;20034;-48
2023/01/21 05:11:13;;;;;;;22.48;14.75;;;;;;;6.34;60.41;98794.44;5013077;28;20064;-48
2023/01/21 05:13:38;;;;;;;22.20;14.75;;;;;;;6.33;60.42;98805.03;5012717;28;20103;-48
2023/01/21 05:16:07;;;;;;;22.60;15.82;;;;;;;6.28;60.29;98805.53;5012668;28;20479;-48
2023/01/21 05:18:33;;;;;;;18.63;13.85;;;;;;;6.26;60.21;98802.28;5012659;28;20037;-48
2023/01/21 05:20:58;;;;;;;25.52;15.75;;;;;;;6.12;60.09;98798.59;5012724;28;20120;-48
2023/01/21 05:23:24;;;;;;;18.98;14.38;;;;;;;6.12;60.86;98806.41;5011428;28;20061;-48
2023/01/21 05:25:50;;;;;;;18.40;14.50;;;;;;;6.15;60.52;98803.47;5012570;28;20022;-48
2023/01/21 05:28:15;;;;;;;19.45;14.40;;;;;;;6.08;60.71;98812.13;5011237;28;20057;-48
2023/01/21 05:30:41;;;;;;;22.60;15.35;;;;;;;6.03;60.44;98809.22;5012507;28;20092;-48
2023/01/21 05:33:06;;;;;;;20.23;14.13;;;;;;;5.91;60.20;98814.75;5012535;28;20065;-48
2023/01/21 05:35:34;;;;;;;21.42;15.65;;;;;;;5.84;60.92;98816.41;5011058;28;20018;-48
2023/01/21 05:37:59;;;;;;;19.08;14.18;;;;;;;5.71;60.74;98816.09;5011226;28;20026;-48
2023/01/21 05:40:25;;;;;;;16.95;12.90;;;;;;;5.58;59.47;98817.41;5012329;28;20018;-48
2023/01/21 05:42:51;;;;;;;23.55;12.95;;;;;;;5.45;60.16;98808.47;5011027;28;20030;-48
2023/01/21 05:45:16;;;;;;;17.33;11.50;;;;;;;5.29;59.55;98812.75;5012532;28;20088;-48
2023/01/21 05:47:42;;;;;;;12.45;9.82;;;;;;;5.14;60.02;98811.75;5016695;28;20053;-48
2023/01/21 05:50:09;;;;;;;15.02;9.88;;;;;;;5.10;60.23;98807.84;5031880;28;20406;-48
2023/01/21 05:52:35;;;;;;;16.48;9.45;;;;;;;5.02;60.26;98805.25;5031907;28;20029;-48
2023/01/21 05:55:00;;;;;;;15.70;10.48;;;;;;;4.85;59.72;98801.78;5013988;28;20095;-48
2023/01/21 05:57:26;;;;;;;18.45;11.60;;;;;;;4.34;60.29;98810.44;5031836;28;20021;-48
2023/01/21 05:59:52;;;;;;;17.83;10.07;;;;;;;4.06;61.39;98807.25;5031783;28;20071;-48
2023/01/21 06:02:18;;;;;;;16.95;11.27;;;;;;;3.92;61.83;98803.44;5030978;28;20029;-48
2023/01/21 06:04:43;;;;;;;13.38;10.25;;;;;;;3.93;62.75;98792.09;5014010;28;20075;-48
2023/01/21 06:07:09;;;;;;;33.70;27.60;;;;;;;3.98;62.38;98792.47;5031718;28;20375;-48
2023/01/21 06:09:34;;;;;;;42.35;35.80;;;;;;;3.94;61.87;98792.91;5013959;28;20384;-48
2023/01/21 06:12:00;;;;;;;41.95;37.58;;;;;;;3.92;61.81;98797.44;5031692;28;20061;-48
2023/01/21 06:14:27;;;;;;;96.07;86.07;;;;;;;3.98;62.66;98799.41;5031596;28;20013;-48
2023/01/21 06:16:53;;;;;;;52.92;47.20;;;;;;;4.15;61.91;98793.34;5031642;28;20028;-48
2023/01/21 06:19:18;;;;;;;43.85;38.50;;;;;;;4.24;61.39;98788.16;5013837;28;20120;-48
2023/01/21 06:21:44;;;;;;;56.92;49.60;;;;;;;4.11;61.83;98789.44;5031595;28;20026;-48
2023/01/21 06:24:10;;;;;;;23.88;21.20;;;;;;;4.02;61.39;98803.34;5031575;28;20033;-48
2023/01/21 06:26:35;;;;;;;44.53;38.17;;;;;;;3.87;61.74;98799.72;5031522;28;20044;-48
2023/01/21 06:29:01;;;;;;;71.00;59.17;;;;;;;3.95;61.93;98797.97;5031739;28;20458;-48
2023/01/21 06:31:27;;;;;;;67.75;60.60;;;;;;;4.02;61.53;98792.13;5031426;28;20117;-48
2023/01/21 06:33:52;;;;;;;53.92;44.10;;;;;;;3.92;61.98;98787.06;5031509;28;20030;-48
2023/01/21 06:36:18;;;;;;;76.82;68.40;;;;;;;3.88;62.04;98777.97;4997324;28;20406;-48
2023/01/21 06:38:43;;;;;;;52.50;45.90;;;;;;;3.72;61.21;98782.13;5031468;28;20026;-48
2023/01/21 06:41:09;;;;;;;58.75;51.58;;;;;;;3.64;62.33;98794.22;5031406;28;20021;-48
2023/01/21 06:43:35;;;;;;;157.80;132.57;;;;;;;3.66;62.61;98800.06;5013695;28;20467;-48
2023/01/21 06:46:00;;;;;;;59.50;51.33;;;;;;;3.88;63.05;98796.13;5031556;28;20030;-48
2023/01/21 06:48:26;;;;;;;61.58;48.90;;;;;;;4.04;62.61;98790.19;5010083;28;20492;-48
2023/01/21 06:50:51;;;;;;;34.92;29.27;;;;;;;4.23;62.14;98795.16;5010361;28;20030;-48
2023/01/21 06:53:17;;;;;;;31.75;25.70;;;;;;;4.26;61.51;98789.63;5011579;28;20026;-48
2023/01/21 06:55:43;;;;;;;67.93;52.55;;;;;;;4.27;61.38;98798.25;5011503;28;20523;-48
2023/01/21 06:58:08;;;;;;;51.22;45.13;;;;;;;4.33;62.04;98797.63;5011582;28;20030;-48
2023/01/21 07:00:34;;;;;;;31.83;23.25;;;;;;;4.53;61.72;98795.59;5011811;28;20404;-48
2023/01/21 07:03:00;;;;;;;49.05;42.80;;;;;;;4.83;62.01;98799.38;5011521;28;20538;-48
2023/01/21 07:05:26;;;;;;;48.65;35.58;;;;;;;4.91;60.85;98796.78;5010487;28;20061;-48
2023/01/21 07:07:56;;;;;;;19.67;16.38;;;;;;;4.89;60.01;98810.91;5011513;28;20487;-48
2023/01/21 07:10:23;;;;;;;35.58;29.05;;;;;;;4.84;60.34;98811.38;5010151;28;20022;-48
2023/01/21 07:12:49;;;;;;;31.70;25.20;;;;;;;4.73;59.71;98815.13;5010374;28;20030;-48
2023/01/21 07:15:15;;;;;;;41.88;36.63;;;;;;;4.60;60.19;98812.97;5014844;28;20026;-47
2023/01/21 07:17:40;;;;;;;37.08;30.88;;;;;;;4.43;60.29;98810.47;5013687;28;20088;-48
2023/01/21 07:20:07;;;;;;;38.95;33.30;;;;;;;4.33;60.77;98811.44;5014839;28;20029;-48
2023/01/21 07:22:33;;;;;;;42.05;37.45;;;;;;;4.32;60.89;98809.78;5013479;28;20034;-48
2023/01/21 07:24:59;;;;;;;49.15;43.67;;;;;;;4.25;61.28;98813.19;5014718;28;20040;-48
2023/01/21 07:27:25;;;;;;;47.33;39.13;;;;;;;4.29;61.24;98822.31;5013720;28;20426;-47
2023/01/21 07:29:51;;;;;;;53.00;47.17;;;;;;;4.43;61.11;98811.31;5013378;28;20455;-48
2023/01/21 07:32:16;;;;;;;41.25;29.85;;;;;;;4.53;61.52;98813.78;5014646;28;20026;-48
2023/01/21 07:34:42;;;;;;;35.10;29.20;;;;;;;4.74;62.05;98802.94;5013483;28;20478;-48
2023/01/21 07:37:07;;;;;;;31.25;26.27;;;;;;;5.05;62.41;98797.94;5014483;28;20022;-48
2023/01/21 07:39:33;;;;;;;24.20;21.35;;;;;;;5.70;61.34;98799.66;5013199;28;20061;-48
2023/01/21 07:41:58;;;;;;;33.08;29.52;;;;;;;6.45;58.64;98803.66;5013112;28;20022;-48
2023/01/21 07:44:24;;;;;;;23.42;19.27;;;;;;;7.11;57.45;98811.09;5013130;28;20150;-48
2023/01/21 07:46:50;;;;;;;28.70;19.25;;;;;;;7.83;56.72;98802.78;5013079;28;20033;-48
2023/01/21 07:49:17;;;;;;;27.20;22.40;;;;;;;8.49;55.35;98809.84;5029472;28;20049;-48
2023/01/21 07:51:47;;;;;;;26.08;22.70;;;;;;;8.88;53.62;98806.88;5016557;28;20076;-48
2023/01/21 07:54:13;;;;;;;28.95;24.20;;;;;;;8.93;51.83;98799.28;5016162;28;20025;-48
2023/01/21 07:56:39;;;;;;;27.80;18.10;;;;;;;9.09;52.84;98802.63;5033777;28;20037;-48
2023/01/21 07:59:06;;;;;;;26.15;23.45;;;;;;;9.71;51.94;98798.47;5000009;28;20032;-48
2023/01/21 08:01:31;;;;;;;35.25;31.50;;;;;;;10.03;49.58;98796.25;5033763;28;20515;-48
2023/01/21 08:03:57;;;;;;;52.53;46.03;;;;;;;9.67;48.76;98802.47;5016224;28;20025;-48
2023/01/21 08:06:23;;;;;;;36.20;31.55;;;;;;;9.01;49.36;98800.94;5033691;28;20022;-48
2023/01/21 08:08:49;;;;;;;26.38;21.50;;;;;;;8.43;51.22;98800.97;5033722;28;20026;-48
2023/01/21 08:11:15;;;;;;;27.55;24.65;;;;;;;8.40;50.85;98804.69;5015848;28;20035;-48
2023/01/21 08:13:40;;;;;;;30.02;24.83;;;;;;;7.95;51.15;98796.09;5033644;28;20030;-48
2023/01/21 08:16:06;;;;;;;29.17;26.05;;;;;;;7.45;50.48;98804.63;5033431;28;20018;-48
2023/01/21 08:18:32;;;;;;;37.83;32.75;;;;;;;6.89;51.81;98805.69;5033755;28;20432;-48
2023/01/21 08:20:58;;;;;;;36.22;29.75;;;;;;;6.61;53.19;98802.75;5033669;28;20673;-48
2023/01/21 08:23:26;;;;;;;40.38;32.92;;;;;;;6.36;54.11;98800.28;5033662;28;20025;-48
2023/01/21 08:25:52;;;;;;;31.05;24.52;;;;;;;6.10;54.60;98800.56;5014770;28;20040;-48
2023/01/21 08:28:17;;;;;;;32.97;25.35;;;;;;;6.12;55.16;98803.81;5033198;28;20022;-48
2023/01/21 08:30:43;;;;;;;40.72;32.17;;;;;;;6.17;55.11;98803.28;5033225;28;20032;-48
2023/01/21 08:33:09;;;;;;;26.60;21.65;;;;;;;6.38;54.98;98813.97;5015427;28;20069;-48
2023/01/21 08:35:35;;;;;;;29.00;23.50;;;;;;;7.04;53.57;98817.97;5033060;28;20475;-48
2023/01/21 08:38:01;;;;;;;31.33;23.48;;;;;;;7.96;52.76;98820.44;5033045;28;20025;-48
2023/01/21 08:40:27;;;;;;;19.80;11.23;;;;;;;8.85;50.94;98822.94;5033106;28;20052;-48
2023/01/21 08:43:01;;;;;;;16.98;12.65;;;;;;;9.37;49.96;98813.94;5015305;28;20053;-49
2023/01/21 08:45:27;;;;;;;29.42;19.63;;;;;;;9.63;48.68;98809.13;5033505;28;20029;-48
2023/01/21 08:47:54;;;;;;;35.35;26.20;;;;;;;9.98;48.61;98805.50;5032665;28;20116;-49
2023/01/21 08:50:20;;;;;;;16.10;13.15;;;;;;;10.74;47.46;98803.81;5015121;28;20112;-48
2023/01/21 08:52:53;;;;;;;26.67;22.55;;;;;;;11.00;45.75;98798.59;5015170;28;20188;-49
2023/01/21 08:55:20;;;;;;;16.63;13.48;;;;;;;11.10;43.99;98808.72;5014903;28;20033;-48
2023/01/21 08:57:47;;;;;;;24.40;21.30;;;;;;;11.64;43.75;98811.38;5032770;28;20029;-49
2023/01/21 09:00:13;;;;;;;17.70;15.82;;;;;;;12.43;42.40;98810.38;5032912;28;20441;-48
2023/01/21 09:02:39;;;;;;;18.33;13.82;;;;;;;12.69;41.16;98808.63;5014930;28;20079;-48
2023/01/21 09:05:05;;;;;;;17.35;12.48;;;;;;;12.78;41.75;98802.13;5014801;28;20037;-48
2023/01/21 09:07:31;;;;;;;23.48;19.10;;;;;;;13.13;39.23;98804.31;5032564;28;20072;-48
2023/01/21 09:09:56;;;;;;;25.58;21.85;;;;;;;12.18;40.38;98805.81;5032540;28;20021;-48
2023/01/21 09:12:22;;;;;;;18.02;14.45;;;;;;;10.97;41.46;98803.47;4998458;28;20025;-49
2023/01/21 09:14:48;;;;;;;16.17;14.52;;;;;;;9.98;43.02;98810.75;5014627;28;20530;-48
2023/01/21 09:17:13;;;;;;;32.92;26.30;;;;;;;9.12;45.20;98828.44;5032313;28;20650;-48
2023/01/21 09:19:39;;;;;;;24.95;21.15;;;;;;;8.43;46.51;98826.28;5014632;28;20088;-48
2023/01/21 09:22:05;;;;;;;17.17;12.93;;;;;;;8.29;47.83;98825.28;5014527;28;20025;-48
2023/01/21 09:24:31;;;;;;;11.88;7.57;;;;;;;8.82;46.33;98812.03;5032226;28;20087;-47
2023/01/21 09:26:56;;;;;;;9.35;6.65;;;;;;;9.04;45.91;98821.53;5032458;28;20028;-48
2023/01/21 09:29:22;;;;;;;17.58;12.70;;;;;;;9.12;45.56;98817.97;5014451;28;20094;-48
2023/01/21 09:31:48;;;;;;;22.63;18.02;;;;;;;8.86;46.69;98819.34;5032101;28;20022;-48
2023/01/21 09:34:13;;;;;;;29.42;16.85;;;;;;;8.57;47.06;98815.81;5032151;28;20029;-48
2023/01/21 09:36:39;;;;;;;28.77;23.83;;;;;;;8.36;47.31;98819.13;5014218;28;20021;-48
2023/01/21 09:39:05;;;;;;;21.85;19.70;;;;;;;8.65;47.28;98811.44;5014271;28;20505;-48
2023/01/21 09:41:44;;;;;;;23.23;14.18;;;;;;;9.69;45.18;98814.38;5032021;28;20021;-47
2023/01/21 09:44:34;;;;;;;38.97;25.13;;;;;;;10.37;45.40;98805.91;5031977;28;20040;-48
2023/01/21 09:47:06;;;;;;;13.52;12.02;;;;;;;11.83;41.51;98802.66;5014201;28;20030;-48
2023/01/21 09:49:47;;;;;;;21.58;12.75;;;;;;;12.20;39.52;98800.34;5031672;28;20041;-48
2023/01/21 09:52:36;;;;;;;24.75;13.50;;;;;;;12.64;40.48;98803.22;5031882;28;20030;-48
2023/01/21 09:55:02;;;;;;;16.42;12.93;;;;;;;13.07;38.53;98807.81;5031762;28;20028;-48
2023/01/21 09:57:51;;;;;;;16.38;13.25;;;;;;;12.93;38.68;98792.06;5031895;28;20060;-48
2023/01/21 10:00:45;;;;;;;28.25;8.57;;;;;;;12.42;38.71;98798.25;5031848;28;20049;-48
2023/01/21 10:03:34;;;;;;;11.18;6.65;;;;;;;12.06;39.99;98798.78;5031809;28;20053;-48
2023/01/21 10:06:27;;;;;;;12.05;7.35;;;;;;;12.31;39.50;98785.72;5031769;28;20414;-48
2023/01/21 10:09:01;;;;;;;15.75;11.20;;;;;;;12.80;37.75;98779.00;5031781;28;20033;-48
2023/01/21 10:11:59;;;;;;;7.60;6.28;;;;;;;13.28;37.56;98769.72;5031821;28;20022;-48
2023/01/21 10:15:10;;;;;;;34.72;30.80;;;;;;;13.71;36.85;98772.41;5031914;28;20376;-48
2023/01/21 10:17:51;;;;;;;48.58;43.35;;;;;;;13.62;34.89;98759.72;5031724;28;20509;-47
2023/01/21 10:20:47;;;;;;;36.38;32.28;;;;;;;13.57;35.23;98747.19;5031885;28;20037;-48
2023/01/21 10:23:23;;;;;;;24.83;14.18;;;;;;;13.71;35.66;98746.03;5017209;28;20030;-48
2023/01/21 10:25:49;;;;;;;13.90;10.13;;;;;;;14.15;35.89;98743.31;5031591;28;20033;-48
2023/01/21 10:28:22;;;;;;;12.77;7.70;;;;;;;14.53;35.76;98737.75;5031538;28;20030;-45
2023/01/21 10:31:01;;;;;;;14.93;7.68;;;;;;;14.77;34.75;98743.13;5031507;28;20034;-46
2023/01/21 10:33:31;;;;;;;9.15;6.93;;;;;;;15.30;34.91;98749.41;5013910;28;20033;-46
2023/01/21 10:36:19;;;;;;;10.15;6.15;;;;;;;15.61;33.16;98735.00;5031397;28;20072;-46
2023/01/21 10:39:09;;;;;;;8.77;5.13;;;;;;;15.68;32.65;98735.72;5013809;28;20403;-46
2023/01/21 10:41:50;;;;;;;6.72;5.28;;;;;;;15.59;32.35;98742.38;5031477;28;20017;-46
2023/01/21 10:44:51;;;;;;;12.45;5.57;;;;;;;15.18;32.90;98725.59;5031471;28;20030;-46
2023/01/21 10:47:43;;;;;;;5.80;5.15;;;;;;;14.87;32.25;98739.91;5031375;28;20053;-45
2023/01/21 10:50:36;;;;;;;5.85;4.55;;;;;;;14.41;32.81;98728.16;4995785;28;20053;-46
2023/01/21 10:53:16;;;;;;;10.95;5.95;;;;;;;14.53;33.37;98726.38;4994500;28;20041;-46
2023/01/21 10:55:47;;;;;;;10.95;5.28;;;;;;;14.74;32.88;98725.88;4995649;28;20080;-45
2023/01/21 10:58:37;;;;;;;10.60;6.78;;;;;;;14.52;32.80;98736.13;4995953;28;20099;-46
2023/01/21 11:01:07;;;;;;;8.93;5.70;;;;;;;14.21;34.37;98721.31;4995636;28;20031;-46
2023/01/21 11:03:43;;;;;;;5.97;4.43;;;;;;;14.03;32.52;98719.50;4995595;28;20049;-45
2023/01/21 11:06:13;;;;;;;8.57;5.45;;;;;;;13.66;34.07;98727.44;4995566;28;20030;-46
2023/01/21 11:08:42;;;;;;;6.65;5.40;;;;;;;13.94;33.81;98723.47;4994268;28;20323;-46
2023/01/21 11:11:09;;;;;;;6.72;4.95;;;;;;;14.40;32.85;98703.59;4994171;28;20026;-46
2023/01/21 11:13:34;;;;;;;6.65;4.88;;;;;;;15.01;31.80;98719.38;4994155;28;20030;-46
2023/01/21 11:16:03;;;;;;;7.43;4.95;;;;;;;15.18;30.84;98720.31;4994055;28;20384;-45
2023/01/21 11:18:35;;;;;;;6.45;5.43;;;;;;;15.06;30.58;98712.38;4995344;28;20022;-45
2023/01/21 11:21:13;;;;;;;6.03;4.55;;;;;;;14.56;31.22;98718.03;4994009;28;20030;-46
2023/01/21 11:23:39;;;;;;;9.27;5.50;;;;;;;14.08;32.08;98740.75;4995135;28;20038;-45
2023/01/21 11:26:14;;;;;;;8.55;4.63;;;;;;;13.73;32.95;98724.72;4995154;28;20037;-45
2023/01/21 11:28:40;;;;;;;11.05;6.47;;;;;;;13.69;33.60;98723.56;4995156;28;20034;-45
2023/01/21 11:31:05;;;;;;;8.10;4.95;;;;;;;13.56;33.46;98725.31;4995058;28;20129;-46
2023/01/21 11:33:32;;;;;;;7.95;4.90;;;;;;;13.59;34.10;98726.69;4995055;28;20026;-45
2023/01/21 11:36:12;;;;;;;9.68;4.68;;;;;;;13.59;33.49;98716.13;4994855;28;20018;-45
2023/01/21 11:38:38;;;;;;;9.05;4.82;;;;;;;13.50;33.17;98725.34;4995062;28;20034;-45
2023/01/21 11:41:22;;;;;;;8.02;4.20;;;;;;;13.27;33.56;98710.13;4994841;28;20022;-45